Time;durP1;ratioP1;P1;durP2;ratioP2;P2;SDS_P1;SDS_P2;PMS_P1;PMS_P2;Temp;Humidity;BMP_temperature;BMP_pressure;BME280_temperature;BME280_humidity;BME280_pressure;Samples;Min_cycle;Max_cycle;Signal;HPM_P1;HPM_P2
2023/10/01 00:01:00;;;;;;;6.35;4.00;;;16.20;99.90;;;;;;4146994;28;20081;-71
2023/10/01 00:03:02;;;;;;;6.53;4.07;;;16.20;99.90;;;;;;4157940;28;20041;-71
2023/10/01 00:05:06;;;;;;;6.43;4.25;;;16.20;99.90;;;;;;4150407;28;20055;-72
2023/10/01 00:07:07;;;;;;;7.60;4.45;;;16.10;99.90;;;;;;4150305;28;20038;-71
2023/10/01 00:09:09;;;;;;;9.07;5.40;;;16.20;99.90;;;;;;4153010;28;20030;-72
2023/10/01 00:11:09;;;;;;;9.30;5.55;;;16.10;99.90;;;;;;4153005;28;20029;-71
2023/10/01 00:13:11;;;;;;;8.50;5.22;;;16.10;99.90;;;;;;4144093;28;20064;-71
2023/10/01 00:15:14;;;;;;;9.57;5.77;;;16.10;99.90;;;;;;4151610;28;20072;-71
2023/10/01 00:17:15;;;;;;;9.18;5.53;;;16.20;99.90;;;;;;4153751;28;20041;-71
2023/10/01 00:19:16;;;;;;;9.95;5.85;;;16.20;99.90;;;;;;4153789;28;20057;-71
2023/10/01 00:21:17;;;;;;;8.23;5.10;;;16.10;99.90;;;;;;4144806;28;20030;-71
2023/10/01 00:23:17;;;;;;;9.32;5.45;;;16.10;99.90;;;;;;4153350;28;20158;-71
2023/10/01 00:25:19;;;;;;;7.68;5.15;;;16.10;99.90;;;;;;4154908;28;20030;-71
2023/10/01 00:27:19;;;;;;;8.27;5.15;;;16.00;99.90;;;;;;4149834;28;20084;-71
2023/10/01 00:29:21;;;;;;;8.25;5.00;;;16.00;99.90;;;;;;4152155;28;20131;-71
2023/10/01 00:31:22;;;;;;;7.63;4.60;;;16.00;99.90;;;;;;4151956;28;20046;-71
2023/10/01 00:33:23;;;;;;;8.10;5.03;;;15.90;99.90;;;;;;4149697;28;20363;-71
2023/10/01 00:35:25;;;;;;;8.50;5.28;;;15.90;99.90;;;;;;4150835;28;20060;-71
2023/10/01 00:37:27;;;;;;;7.85;4.68;;;15.90;99.90;;;;;;4149067;28;20030;-72
2023/10/01 00:39:29;;;;;;;7.93;4.70;;;15.90;99.90;;;;;;4149076;28;20088;-71
2023/10/01 00:41:30;;;;;;;7.45;4.60;;;15.90;99.90;;;;;;4147432;28;20033;-71
2023/10/01 00:43:31;;;;;;;9.50;4.78;;;15.90;99.90;;;;;;4153159;28;20036;-71
2023/10/01 00:45:32;;;;;;;8.50;5.00;;;15.90;99.90;;;;;;4149516;28;20534;-71
2023/10/01 00:47:33;;;;;;;9.40;5.70;;;15.90;99.90;;;;;;4133959;28;20034;-71
2023/10/01 00:49:46;;;;;;;8.75;5.03;;;15.90;99.90;;;;;;4150272;28;20044;-81
2023/10/01 00:51:48;;;;;;;11.05;5.90;;;15.90;99.90;;;;;;4151520;28;20128;-81
2023/10/01 00:53:50;;;;;;;11.50;6.45;;;15.80;99.90;;;;;;4135367;28;20038;-81
2023/10/01 00:55:51;;;;;;;11.02;6.90;;;15.80;99.90;;;;;;4152928;28;20127;-81
2023/10/01 00:57:56;;;;;;;10.10;6.10;;;15.70;99.90;;;;;;4149821;28;20026;-80
2023/10/01 00:59:56;;;;;;;9.93;6.00;;;15.70;99.90;;;;;;4146420;28;20558;-80
2023/10/01 01:01:57;;;;;;;11.73;6.07;;;15.60;99.90;;;;;;4150980;28;20107;-80
2023/10/01 01:03:58;;;;;;;13.35;5.65;;;15.60;99.90;;;;;;4149120;28;20412;-80
2023/10/01 01:08:07;;;;;;;7.05;4.97;;;15.60;99.90;;;;;;4151977;28;20040;-80
2023/10/01 01:10:08;;;;;;;9.15;5.75;;;15.50;99.90;;;;;;4150435;28;20049;-80
2023/10/01 01:12:09;;;;;;;10.02;5.03;;;15.50;99.90;;;;;;4147573;28;20061;-80
2023/10/01 01:14:11;;;;;;;8.07;5.13;;;15.50;99.90;;;;;;4148483;28;20048;-81
2023/10/01 01:16:13;;;;;;;8.70;4.93;;;15.50;99.90;;;;;;4149749;28;20018;-80
2023/10/01 01:18:14;;;;;;;7.03;4.50;;;15.60;99.90;;;;;;4157502;28;20500;-81
2023/10/01 01:20:16;;;;;;;8.05;4.90;;;15.60;99.90;;;;;;4150124;28;20051;-80
2023/10/01 01:22:28;;;;;;;7.93;5.15;;;15.60;99.90;;;;;;4145192;28;20526;-80
2023/10/01 01:24:29;;;;;;;7.07;4.68;;;15.60;99.90;;;;;;4132843;28;20117;-80
2023/10/01 01:26:31;;;;;;;9.32;5.03;;;15.60;99.90;;;;;;4152422;28;20029;-80
2023/10/01 01:28:32;;;;;;;7.60;4.75;;;15.60;99.90;;;;;;4151649;28;20035;-81
2023/10/01 01:30:36;;;;;;;7.35;4.78;;;15.70;99.90;;;;;;4128281;28;20451;-80
2023/10/01 01:32:36;;;;;;;8.23;4.75;;;15.70;99.90;;;;;;4148725;28;20489;-79
2023/10/01 01:34:37;;;;;;;7.25;4.88;;;15.70;99.90;;;;;;4152759;28;20045;-80
2023/10/01 01:36:39;;;;;;;7.72;4.97;;;15.70;99.90;;;;;;4149423;28;20243;-80
2023/10/01 01:38:53;;;;;;;9.77;4.53;;;15.70;99.90;;;;;;4152461;28;20033;-80
2023/10/01 01:40:54;;;;;;;8.48;4.95;;;15.70;99.90;;;;;;4152890;28;20032;-81
2023/10/01 01:42:56;;;;;;;7.95;5.13;;;15.70;99.90;;;;;;4133275;28;20113;-81
2023/10/01 01:45:15;;;;;;;7.22;4.53;;;15.70;99.90;;;;;;4148367;28;20049;-79
2023/10/01 01:47:16;;;;;;;7.35;4.82;;;15.70;99.90;;;;;;4151262;28;20049;-80
2023/10/01 01:49:18;;;;;;;6.25;4.50;;;15.70;99.90;;;;;;4148039;28;20172;-80
2023/10/01 01:51:20;;;;;;;6.80;4.72;;;15.70;99.90;;;;;;4149225;28;20113;-81
2023/10/01 01:53:21;;;;;;;8.48;4.85;;;15.70;99.90;;;;;;4150234;28;20487;-80
2023/10/01 01:55:26;;;;;;;8.60;4.97;;;15.60;99.90;;;;;;4151379;28;20052;-81
2023/10/01 01:57:30;;;;;;;10.05;5.22;;;15.70;99.90;;;;;;4152680;28;20406;-77
2023/10/01 01:59:31;;;;;;;8.70;4.70;;;15.70;99.90;;;;;;4149135;28;20040;-80
2023/10/01 02:01:35;;;;;;;6.07;4.13;;;15.60;99.90;;;;;;4135189;28;20037;-80
2023/10/01 02:03:39;;;;;;;7.40;4.70;;;15.60;99.90;;;;;;4127527;28;20364;-81
2023/10/01 02:05:41;;;;;;;8.13;5.13;;;15.60;99.90;;;;;;4146315;28;20363;-81
2023/10/01 02:07:42;;;;;;;7.45;4.40;;;15.60;99.90;;;;;;4151261;28;20021;-80
2023/10/01 02:09:42;;;;;;;6.68;4.47;;;15.60;99.90;;;;;;4148098;28;20038;-81
2023/10/01 02:11:44;;;;;;;8.85;4.90;;;15.50;99.90;;;;;;4133258;28;20030;-81
2023/10/01 02:13:46;;;;;;;10.18;5.18;;;15.50;99.90;;;;;;4149105;28;20083;-81
2023/10/01 02:15:47;;;;;;;10.40;5.13;;;15.50;99.90;;;;;;4149197;28;20029;-81
2023/10/01 02:17:48;;;;;;;8.43;4.78;;;15.40;99.90;;;;;;4149647;28;20076;-80
2023/10/01 02:19:49;;;;;;;8.82;5.22;;;15.40;99.90;;;;;;4128033;28;20712;-80
2023/10/01 02:22:00;;;;;;;8.18;4.78;;;15.40;99.90;;;;;;4150841;28;20405;-79
2023/10/01 02:24:00;;;;;;;7.45;4.40;;;15.40;99.90;;;;;;4151061;28;20033;-80
2023/10/01 02:26:01;;;;;;;7.22;4.80;;;15.40;99.90;;;;;;4144919;28;20112;-81
2023/10/01 02:28:15;;;;;;;7.53;4.53;;;15.40;99.90;;;;;;4150886;28;20517;-80
2023/10/01 02:30:16;;;;;;;7.03;4.25;;;15.40;99.90;;;;;;4147229;28;20049;-80
2023/10/01 02:32:17;;;;;;;7.47;4.75;;;15.40;99.90;;;;;;4152456;28;21057;-81
2023/10/01 02:34:19;;;;;;;8.50;4.70;;;15.40;99.90;;;;;;4144406;28;20902;-81
2023/10/01 02:36:23;;;;;;;6.47;4.30;;;15.40;99.90;;;;;;4142950;28;20113;-81
2023/10/01 02:40:44;;;;;;;7.97;4.30;;;15.40;99.90;;;;;;4143826;28;20034;-80
2023/10/01 02:42:49;;;;;;;6.55;4.20;;;15.40;99.90;;;;;;4149151;28;20438;-79
2023/10/01 02:44:53;;;;;;;7.40;4.72;;;15.40;99.90;;;;;;4144590;28;20053;-79
2023/10/01 02:46:58;;;;;;;7.88;4.93;;;15.40;99.90;;;;;;4126407;28;20454;-79
2023/10/01 02:49:02;;;;;;;10.15;4.90;;;15.50;99.90;;;;;;4151520;28;20084;-74
2023/10/01 02:51:15;;;;;;;7.25;4.45;;;15.40;99.90;;;;;;4146887;28;20034;-80
2023/10/01 02:53:20;;;;;;;;;;;15.40;99.90;;;;;;4153949;28;20069;-79
2023/10/01 02:55:26;;;;;;;7.50;4.20;;;15.40;99.90;;;;;;4148336;28;20568;-80
2023/10/01 02:57:33;;;;;;;8.65;4.57;;;15.40;99.90;;;;;;4151927;28;20042;-80
2023/10/01 02:59:36;;;;;;;9.75;4.65;;;15.40;99.90;;;;;;4147585;28;20080;-79
2023/10/01 03:01:42;;;;;;;8.60;4.78;;;15.40;99.90;;;;;;4149239;28;20509;-76
2023/10/01 03:03:43;;;;;;;7.53;4.53;;;15.30;99.90;;;;;;4092764;28;20037;-79
2023/10/01 03:05:47;;;;;;;7.20;4.43;;;15.30;99.90;;;;;;4090801;28;20041;-80
2023/10/01 03:07:50;;;;;;;5.72;4.10;;;15.30;99.90;;;;;;4155405;28;20034;-71
2023/10/01 03:09:53;;;;;;;;;;;15.30;99.90;;;;;;4130012;28;20042;-71
2023/10/01 03:12:23;;;;;;;6.93;3.60;;;15.30;99.90;;;;;;4153384;28;19910;-71
2023/10/01 03:14:20;;;;;;;8.65;3.97;;;15.30;99.90;;;;;;4152411;28;20026;-71
2023/10/01 03:16:42;;;;;;;7.93;4.10;;;15.30;99.90;;;;;;4148344;28;20059;-71
2023/10/01 03:18:44;;;;;;;5.60;3.28;;;15.30;99.90;;;;;;4150711;28;20033;-71
2023/10/01 03:22:52;;;;;;;7.47;4.07;;;15.30;99.90;;;;;;4151160;28;20166;-71
2023/10/01 03:24:53;;;;;;;6.72;3.90;;;15.30;99.90;;;;;;4153048;28;20394;-71
2023/10/01 03:26:57;;;;;;;8.05;4.22;;;15.40;99.90;;;;;;4150500;28;20018;-71
2023/10/01 03:29:16;;;;;;;6.68;4.15;;;15.30;99.90;;;;;;4149337;28;20033;-71
2023/10/01 03:31:17;;;;;;;7.80;4.22;;;15.40;99.90;;;;;;4152373;28;20033;-71
2023/10/01 03:33:20;;;;;;;7.65;4.18;;;15.40;99.90;;;;;;4150499;28;20480;-71
2023/10/01 03:35:21;;;;;;;9.05;4.55;;;15.30;99.90;;;;;;4151172;28;20022;-71
2023/10/01 03:37:28;;;;;;;8.30;4.00;;;15.40;99.90;;;;;;4150029;28;20487;-71
2023/10/01 03:39:28;;;;;;;6.05;3.78;;;15.30;99.90;;;;;;4151105;28;20037;-71
2023/10/01 03:41:52;;;;;;;6.95;4.03;;;15.30;99.90;;;;;;4128991;28;20046;-71
2023/10/01 03:44:08;;;;;;;7.45;3.97;;;15.40;99.90;;;;;;4150502;28;20479;-71
2023/10/01 03:46:13;;;;;;;5.90;3.28;;;15.40;99.90;;;;;;4147625;28;20459;-71
2023/10/01 03:48:19;;;;;;;6.63;4.22;;;15.40;99.90;;;;;;4152875;28;20157;-71
2023/10/01 03:50:24;;;;;;;6.28;3.70;;;15.40;99.90;;;;;;4139217;28;20029;-71
2023/10/01 03:52:28;;;;;;;7.53;3.90;;;15.40;99.90;;;;;;4131411;28;20092;-71
2023/10/01 03:57:11;;;;;;;6.18;3.65;;;15.40;99.90;;;;;;4082023;29;20633;-72
2023/10/01 03:59:16;;;;;;;6.57;3.78;;;15.40;99.90;;;;;;4083910;29;20412;-71
2023/10/01 04:01:25;;;;;;;6.72;3.75;;;15.40;99.90;;;;;;4085878;29;20031;-71
2023/10/01 04:03:36;;;;;;;8.02;4.10;;;15.40;99.90;;;;;;4147572;28;20494;-71
2023/10/01 04:05:44;;;;;;;7.95;3.90;;;15.40;99.90;;;;;;4152357;28;20022;-71
2023/10/01 04:07:45;;;;;;;6.70;3.53;;;15.30;99.90;;;;;;4136086;28;20035;-71
2023/10/01 04:09:46;;;;;;;7.80;3.88;;;15.30;99.90;;;;;;4149545;28;20022;-71
2023/10/01 04:11:49;;;;;;;6.30;3.67;;;15.30;99.90;;;;;;4148888;28;20032;-72
2023/10/01 04:14:08;;;;;;;6.65;3.95;;;15.30;99.90;;;;;;4156321;28;20050;-71
2023/10/01 04:16:08;;;;;;;7.43;4.18;;;15.20;99.90;;;;;;4151303;28;20494;-71
2023/10/01 04:20:19;;;;;;;9.98;4.40;;;15.10;99.90;;;;;;4148239;28;20057;-71
2023/10/01 04:22:21;;;;;;;10.13;4.50;;;15.10;99.90;;;;;;4148864;28;20478;-71
2023/10/01 04:24:22;;;;;;;7.85;3.97;;;15.00;99.90;;;;;;4149320;28;20037;-71
2023/10/01 04:26:25;;;;;;;6.88;3.55;;;15.00;99.90;;;;;;4155517;28;20544;-71
2023/10/01 04:28:27;;;;;;;6.88;3.70;;;15.00;99.90;;;;;;4147220;28;20076;-72
2023/10/01 04:30:27;;;;;;;8.75;4.22;;;15.00;99.90;;;;;;4148515;28;20087;-72
2023/10/01 04:32:28;;;;;;;7.88;3.88;;;15.00;99.90;;;;;;4150948;28;20426;-72
2023/10/01 04:34:29;;;;;;;6.72;3.63;;;15.00;99.90;;;;;;4150971;28;20133;-72
2023/10/01 04:36:31;;;;;;;8.02;3.60;;;15.00;99.90;;;;;;4152428;28;20046;-71
2023/10/01 04:38:35;;;;;;;7.85;4.45;;;15.00;99.90;;;;;;4149484;28;20060;-72
2023/10/01 04:40:39;;;;;;;7.82;4.43;;;14.90;99.90;;;;;;4150957;28;20116;-72
2023/10/01 04:42:43;;;;;;;8.48;4.20;;;14.90;99.90;;;;;;4155728;28;20037;-72
2023/10/01 04:44:44;;;;;;;6.95;4.03;;;14.90;99.90;;;;;;4132805;28;20034;-72
2023/10/01 04:46:45;;;;;;;7.30;3.90;;;14.80;99.90;;;;;;4147151;28;20030;-72
2023/10/01 04:48:47;;;;;;;5.93;3.83;;;14.90;99.90;;;;;;4134239;28;20080;-71
2023/10/01 04:50:50;;;;;;;5.82;3.35;;;14.90;99.90;;;;;;4151706;28;20029;-72
2023/10/01 04:52:50;;;;;;;6.30;3.50;;;14.90;99.90;;;;;;4135226;28;20030;-72
2023/10/01 04:54:51;;;;;;;9.15;4.13;;;14.90;99.90;;;;;;4147203;28;20036;-72
2023/10/01 04:56:55;;;;;;;8.68;4.85;;;14.90;99.90;;;;;;4148553;28;20149;-72
2023/10/01 04:58:55;;;;;;;8.55;4.38;;;14.80;99.90;;;;;;4146421;28;20491;-72
2023/10/01 05:00:56;;;;;;;7.53;3.72;;;14.80;99.90;;;;;;4147321;28;20115;-72
2023/10/01 05:02:57;;;;;;;8.57;4.88;;;14.80;99.90;;;;;;4130942;28;20471;-71
2023/10/01 05:05:09;;;;;;;7.72;4.32;;;14.80;99.90;;;;;;4149290;28;20049;-71
2023/10/01 05:07:10;;;;;;;7.13;3.80;;;14.90;99.90;;;;;;4153404;28;20463;-72
2023/10/01 05:09:14;;;;;;;8.73;4.40;;;14.90;99.90;;;;;;4153010;28;20064;-72
2023/10/01 05:11:21;;;;;;;7.65;4.07;;;14.90;99.90;;;;;;4153095;28;20470;-72
2023/10/01 05:13:24;;;;;;;8.50;4.32;;;14.90;99.90;;;;;;4153676;28;20037;-72
2023/10/01 05:15:26;;;;;;;8.00;3.67;;;14.80;99.90;;;;;;4150531;28;20052;-72
2023/10/01 05:17:30;;;;;;;8.30;4.20;;;14.90;99.90;;;;;;4134493;28;20434;-72
2023/10/01 05:19:32;;;;;;;8.38;4.00;;;14.90;99.90;;;;;;4152773;28;20261;-72
2023/10/01 05:21:36;;;;;;;5.13;3.22;;;14.90;99.90;;;;;;4132302;28;20129;-72
2023/10/01 05:23:36;;;;;;;7.38;4.15;;;14.90;99.90;;;;;;4147736;28;20478;-71
2023/10/01 05:25:45;;;;;;;8.32;4.45;;;14.90;99.90;;;;;;4146216;28;20022;-72
2023/10/01 05:27:46;;;;;;;8.48;4.30;;;14.90;99.90;;;;;;4151698;28;20683;-73
2023/10/01 05:29:47;;;;;;;7.28;3.80;;;14.80;99.90;;;;;;4148466;28;20041;-73
2023/10/01 05:31:47;;;;;;;8.52;4.57;;;14.90;99.90;;;;;;4143825;28;20049;-73
2023/10/01 05:33:51;;;;;;;8.05;3.78;;;14.90;99.90;;;;;;4147469;28;20490;-73
2023/10/01 05:35:57;;;;;;;7.60;3.97;;;14.80;99.90;;;;;;4146348;28;20049;-73
2023/10/01 05:37:58;;;;;;;9.48;4.72;;;14.80;99.90;;;;;;4120954;28;20061;-73
2023/10/01 05:39:58;;;;;;;8.60;3.95;;;14.70;99.90;;;;;;4148821;28;20034;-73
2023/10/01 05:42:00;;;;;;;8.48;4.25;;;14.70;99.90;;;;;;4147695;28;20042;-73
2023/10/01 05:44:04;;;;;;;7.20;4.03;;;14.70;99.90;;;;;;4145500;28;20057;-73
2023/10/01 05:46:11;;;;;;;8.30;4.32;;;14.70;99.90;;;;;;4148136;28;20030;-72
2023/10/01 05:48:12;;;;;;;8.23;3.85;;;14.70;99.90;;;;;;4145874;28;20038;-73
2023/10/01 05:50:14;;;;;;;7.30;4.35;;;14.70;99.90;;;;;;4147255;28;20088;-73
2023/10/01 05:52:17;;;;;;;8.07;4.57;;;14.70;99.90;;;;;;4147326;28;20127;-73
2023/10/01 05:54:18;;;;;;;6.60;3.95;;;14.60;99.90;;;;;;4150313;28;20029;-73
2023/10/01 05:56:19;;;;;;;7.35;3.90;;;14.70;99.90;;;;;;4122761;28;20023;-73
2023/10/01 05:58:21;;;;;;;9.35;4.50;;;14.70;99.90;;;;;;4143311;28;20026;-73
2023/10/01 06:00:27;;;;;;;7.88;4.30;;;14.70;99.90;;;;;;4132656;28;20442;-73
2023/10/01 06:03:10;;;;;;;7.22;4.03;;;14.70;99.90;;;;;;4145207;28;20026;-70
2023/10/01 06:04:53;;;;;;;8.13;3.78;;;14.60;99.90;;;;;;4121489;28;20034;-70
2023/10/01 06:06:54;;;;;;;9.95;4.72;;;14.60;99.90;;;;;;4126231;28;20046;-71
2023/10/01 06:09:00;;;;;;;7.60;4.10;;;14.60;99.90;;;;;;4129002;28;20030;-70
2023/10/01 06:13:06;;;;;;;7.70;3.80;;;14.60;99.90;;;;;;4151420;28;20060;-71
2023/10/01 06:15:11;;;;;;;10.25;4.95;;;14.60;99.90;;;;;;4151802;28;20048;-71
2023/10/01 06:17:12;;;;;;;9.32;5.00;;;14.60;99.90;;;;;;4146699;28;20061;-70
2023/10/01 06:19:14;;;;;;;8.45;4.47;;;14.60;99.90;;;;;;4144321;28;20045;-69
2023/10/01 06:21:16;;;;;;;8.43;4.25;;;14.60;99.90;;;;;;4142810;28;20033;-70
2023/10/01 06:23:17;;;;;;;8.27;4.70;;;14.60;99.90;;;;;;4146086;28;20033;-70
2023/10/01 06:25:37;;;;;;;8.68;4.22;;;14.60;99.90;;;;;;4131904;28;20039;-70
2023/10/01 06:27:37;;;;;;;9.90;4.70;;;14.60;99.90;;;;;;4148838;28;20037;-70
2023/10/01 06:29:50;;;;;;;9.05;4.75;;;14.60;99.90;;;;;;4147761;28;20529;-70
2023/10/01 06:31:52;;;;;;;9.45;4.30;;;14.60;99.90;;;;;;4144584;28;20512;-70
2023/10/01 06:33:57;;;;;;;10.27;4.63;;;14.60;99.90;;;;;;4152354;28;20042;-70
2023/10/01 06:36:15;;;;;;;10.10;4.97;;;14.60;99.90;;;;;;4153704;28;20029;-70
2023/10/01 06:38:16;;;;;;;12.95;5.90;;;14.60;99.90;;;;;;4148512;28;20030;-71
2023/10/01 06:40:32;;;;;;;11.52;5.18;;;14.70;99.90;;;;;;4149528;28;20062;-70
2023/10/01 06:42:33;;;;;;;13.13;5.50;;;14.70;99.90;;;;;;4152514;28;20069;-69
2023/10/01 06:44:33;;;;;;;9.57;4.95;;;14.80;99.90;;;;;;4149521;28;20501;-69
2023/10/01 06:46:34;;;;;;;12.48;5.35;;;15.00;99.90;;;;;;4148844;28;20116;-69
2023/10/01 06:48:36;;;;;;;8.13;4.53;;;15.20;99.90;;;;;;4149255;28;20080;-69
2023/10/01 06:50:39;;;;;;;9.73;4.53;;;15.30;99.90;;;;;;4148701;28;20034;-69
2023/10/01 06:52:43;;;;;;;10.88;5.30;;;15.50;99.90;;;;;;4149317;28;20057;-69
2023/10/01 06:54:44;;;;;;;10.55;5.35;;;15.70;99.90;;;;;;4145903;28;20034;-69
2023/10/01 06:56:47;;;;;;;11.45;5.18;;;16.00;99.90;;;;;;4145570;28;20430;-70
2023/10/01 07:01:33;;;;;;;9.32;4.95;;;16.40;99.90;;;;;;4150026;28;20026;-69
2023/10/01 07:03:30;;;;;;;8.88;4.68;;;16.60;99.90;;;;;;4147871;28;21029;-69
2023/10/01 07:05:32;;;;;;;11.63;5.10;;;16.90;99.90;;;;;;4146970;28;20050;-69
2023/10/01 07:07:35;;;;;;;11.75;5.47;;;17.10;99.90;;;;;;4148785;28;20045;-69
2023/10/01 07:09:38;;;;;;;9.63;4.88;;;17.40;99.90;;;;;;4148361;28;20038;-69
2023/10/01 07:11:38;;;;;;;9.77;5.30;;;17.60;99.90;;;;;;4152204;28;20060;-70
2023/10/01 07:13:39;;;;;;;9.50;4.68;;;17.80;99.90;;;;;;4149919;28;20490;-69
2023/10/01 07:15:40;;;;;;;11.20;5.05;;;18.10;99.90;;;;;;4154798;28;20061;-69
2023/10/01 07:17:41;;;;;;;10.63;4.63;;;18.40;99.90;;;;;;4132873;28;20782;-69
2023/10/01 07:19:42;;;;;;;10.95;4.90;;;18.50;99.90;;;;;;4146600;28;20034;-70
2023/10/01 07:21:45;;;;;;;9.55;5.25;;;18.80;99.90;;;;;;4148812;28;20060;-70
2023/10/01 07:23:46;;;;;;;11.10;5.57;;;19.00;99.90;;;;;;4148397;28;20034;-69
2023/10/01 07:25:49;;;;;;;9.52;4.82;;;19.30;99.90;;;;;;4149951;28;20049;-69
2023/10/01 07:27:49;;;;;;;10.38;5.43;;;19.60;99.90;;;;;;4149956;28;20030;-69
2023/10/01 07:29:54;;;;;;;9.38;5.20;;;19.90;99.90;;;;;;4147373;28;20041;-69
2023/10/01 07:31:55;;;;;;;11.25;5.20;;;20.10;99.90;;;;;;4146262;28;20030;-69
2023/10/01 07:34:01;;;;;;;11.38;5.90;;;20.40;99.90;;;;;;4131347;28;20053;-69
2023/10/01 07:36:10;;;;;;;11.50;5.55;;;20.50;99.90;;;;;;4148662;28;20501;-69
2023/10/01 07:38:15;;;;;;;11.30;5.60;;;20.70;99.90;;;;;;4148252;28;20141;-69
2023/10/01 07:40:17;;;;;;;9.93;5.55;;;21.00;99.90;;;;;;4148176;28;20545;-70
2023/10/01 07:42:18;;;;;;;9.60;4.97;;;21.20;99.90;;;;;;4149562;28;20624;-70
2023/10/01 07:44:18;;;;;;;9.50;4.75;;;21.40;99.90;;;;;;4131207;28;20046;-70
2023/10/01 07:46:19;;;;;;;9.82;5.00;;;21.60;99.90;;;;;;4146864;28;20037;-70
2023/10/01 07:48:21;;;;;;;10.40;5.55;;;21.70;99.90;;;;;;4152234;28;20037;-67
2023/10/01 07:50:24;;;;;;;15.32;5.47;;;22.00;99.90;;;;;;4155848;28;20076;-67
2023/10/01 07:52:24;;;;;;;11.55;5.22;;;22.10;99.90;;;;;;4128202;28;20030;-68
2023/10/01 07:54:28;;;;;;;10.05;5.60;;;22.10;99.90;;;;;;4134470;28;20045;-67
2023/10/01 07:56:29;;;;;;;13.00;6.28;;;22.40;99.90;;;;;;4132320;28;20427;-68
2023/10/01 07:58:48;;;;;;;12.00;5.90;;;22.40;99.90;;;;;;4153281;28;20034;-67
2023/10/01 08:00:58;;;;;;;10.63;5.85;;;22.60;99.90;;;;;;4150701;28;20047;-68
2023/10/01 08:05:20;;;;;;;12.18;6.18;;;22.80;99.90;;;;;;4153988;28;20087;-68
2023/10/01 08:07:22;;;;;;;10.23;5.82;;;23.00;99.90;;;;;;4154072;28;20049;-68
2023/10/01 08:09:23;;;;;;;12.48;6.20;;;23.10;99.90;;;;;;4145347;28;20030;-68
2023/10/01 08:13:46;;;;;;;9.98;5.65;;;23.20;99.90;;;;;;4137032;28;20041;-68
2023/10/01 08:15:59;;;;;;;11.88;6.00;;;23.30;99.90;;;;;;4150214;28;20062;-68
2023/10/01 08:18:26;;;;;;;10.80;5.57;;;23.20;99.90;;;;;;4150171;28;20029;-68
2023/10/01 08:20:31;;;;;;;12.15;5.72;;;23.30;99.90;;;;;;4148964;28;20069;-69
2023/10/01 08:25:01;;;;;;;12.60;6.18;;;23.20;99.90;;;;;;4119561;28;20116;-68
2023/10/01 08:27:03;;;;;;;11.40;5.90;;;23.20;99.90;;;;;;4152399;28;20497;-67
2023/10/01 08:29:04;;;;;;;10.32;5.78;;;23.10;99.90;;;;;;4150633;28;20474;-67
2023/10/01 08:33:32;;;;;;;11.95;6.03;;;23.00;99.90;;;;;;4153147;28;20056;-68
2023/10/01 08:35:34;;;;;;;11.07;5.70;;;22.90;99.90;;;;;;4151141;28;20125;-67
2023/10/01 08:37:38;;;;;;;11.65;5.85;;;22.90;99.90;;;;;;4131890;28;20046;-67
2023/10/01 08:39:48;;;;;;;10.77;5.55;;;22.90;99.90;;;;;;4152617;28;20564;-67
2023/10/01 08:41:50;;;;;;;13.82;6.90;;;22.90;99.90;;;;;;4115430;28;20040;-68
2023/10/01 08:44:08;;;;;;;;;;;22.80;99.90;;;;;;4147249;28;20435;-68
2023/10/01 08:46:16;;;;;;;10.90;5.82;;;22.80;99.90;;;;;;4144855;28;20393;-67
2023/10/01 08:48:17;;;;;;;12.88;6.68;;;22.70;99.90;;;;;;4152965;28;20171;-67
2023/10/01 08:50:27;;;;;;;17.88;7.22;;;22.70;99.90;;;;;;4145795;28;20371;-67
2023/10/01 08:52:30;;;;;;;11.80;6.10;;;22.70;99.90;;;;;;4150997;28;20037;-67
2023/10/01 08:54:32;;;;;;;14.10;6.63;;;22.70;99.90;;;;;;4130988;28;20037;-67
2023/10/01 08:56:32;;;;;;;14.37;6.97;;;22.70;99.90;;;;;;4151461;28;20395;-68
2023/10/01 08:58:48;;;;;;;14.32;7.28;;;22.60;99.90;;;;;;4152002;28;20038;-71
2023/10/01 09:00:52;;;;;;;14.80;6.53;;;22.60;99.90;;;;;;4135162;28;20102;-71
2023/10/01 09:03:07;;;;;;;14.25;6.63;;;22.60;99.90;;;;;;4140819;28;20022;-71
2023/10/01 09:05:12;;;;;;;11.98;5.93;;;22.60;99.90;;;;;;4130086;28;20084;-72
2023/10/01 09:07:19;;;;;;;12.65;5.82;;;22.60;99.90;;;;;;4148482;28;20042;-71
2023/10/01 09:09:19;;;;;;;14.27;6.85;;;22.60;99.90;;;;;;4144577;28;20078;-71
2023/10/01 09:11:42;;;;;;;14.20;7.03;;;22.60;99.90;;;;;;4147112;28;20383;-71
2023/10/01 09:16:13;;;;;;;13.05;6.88;;;22.60;99.90;;;;;;4147910;28;20490;-71
2023/10/01 09:18:20;;;;;;;12.35;6.18;;;22.70;99.90;;;;;;4149237;28;20041;-72
2023/10/01 09:20:37;;;;;;;16.83;7.38;;;22.70;99.90;;;;;;4149463;28;20398;-71
2023/10/01 09:22:42;;;;;;;13.35;6.72;;;22.70;99.90;;;;;;4115162;28;20142;-71
2023/10/01 09:24:55;;;;;;;12.98;6.82;;;22.70;99.90;;;;;;4149036;28;20034;-71
2023/10/01 09:27:18;;;;;;;15.45;6.90;;;22.70;99.90;;;;;;4143157;28;20037;-71
2023/10/01 09:29:21;;;;;;;14.35;6.95;;;22.60;99.90;;;;;;4128639;28;20219;-72
2023/10/01 09:31:30;;;;;;;;;;;22.60;99.90;;;;;;4150481;28;20065;-71
2023/10/01 09:33:32;;;;;;;14.48;6.80;;;22.60;99.90;;;;;;4149682;28;19927;-71
2023/10/01 09:35:59;;;;;;;13.48;6.63;;;22.60;99.90;;;;;;4110970;28;20122;-71
2023/10/01 09:38:10;;;;;;;13.90;6.72;;;22.70;99.90;;;;;;4147842;28;20509;-71
2023/10/01 09:40:32;;;;;;;14.30;7.07;;;22.70;99.90;;;;;;4148175;28;20487;-72
2023/10/01 09:42:55;;;;;;;16.48;7.30;;;22.70;99.90;;;;;;4147389;28;20038;-71
2023/10/01 09:45:09;;;;;;;12.45;6.68;;;22.70;99.90;;;;;;4130977;28;20394;-71
2023/10/01 09:47:11;;;;;;;15.32;7.22;;;22.70;99.90;;;;;;4149418;28;20375;-71
2023/10/01 09:49:21;;;;;;;14.53;7.03;;;22.70;99.90;;;;;;4130176;28;20383;-71
2023/10/01 09:51:30;;;;;;;17.50;8.18;;;22.70;99.90;;;;;;4144587;28;20276;-72
2023/10/01 09:53:50;;;;;;;14.25;7.53;;;22.70;99.90;;;;;;4128409;28;20042;-71
2023/10/01 09:55:57;;;;;;;13.32;6.78;;;22.80;99.90;;;;;;4145883;28;20469;-70
2023/10/01 09:57:59;;;;;;;13.57;6.35;;;22.80;99.90;;;;;;4132071;28;20124;-71
2023/10/01 10:00:14;;;;;;;15.18;7.43;;;22.90;99.90;;;;;;4128270;28;20062;-71
2023/10/01 10:02:27;;;;;;;12.13;6.68;;;22.90;99.90;;;;;;4148194;28;20045;-71
2023/10/01 10:04:29;;;;;;;14.40;6.95;;;23.00;99.90;;;;;;4132809;28;20580;-71
2023/10/01 10:06:31;;;;;;;13.40;6.78;;;23.00;99.90;;;;;;4146053;28;20030;-71
2023/10/01 10:08:34;;;;;;;14.10;7.43;;;22.90;99.90;;;;;;4150874;28;20048;-77
2023/10/01 10:10:35;;;;;;;14.70;7.28;;;23.00;99.90;;;;;;4132449;28;20442;-77
2023/10/01 10:12:36;;;;;;;14.68;6.82;;;22.90;99.90;;;;;;4147725;28;20030;-77
2023/10/01 10:14:39;;;;;;;14.10;7.32;;;23.00;99.90;;;;;;4152229;28;20060;-77
2023/10/01 10:17:18;;;;;;;12.50;6.32;;;23.00;99.90;;;;;;4145626;28;20038;-77
2023/10/01 10:19:21;;;;;;;16.55;7.50;;;22.90;99.90;;;;;;4129660;28;20495;-78
2023/10/01 10:21:36;;;;;;;12.68;6.70;;;22.90;99.90;;;;;;4149669;28;20038;-77
2023/10/01 10:23:55;;;;;;;16.20;7.13;;;22.90;99.90;;;;;;4150497;28;20136;-77
2023/10/01 10:26:13;;;;;;;15.82;7.38;;;22.80;99.90;;;;;;4151144;28;20100;-78
2023/10/01 10:28:29;;;;;;;13.98;6.90;;;22.80;99.90;;;;;;4148323;28;20110;-78
2023/10/01 10:30:30;;;;;;;13.40;6.50;;;22.80;99.90;;;;;;4145190;28;20030;-77
2023/10/01 10:32:42;;;;;;;16.65;7.63;;;22.90;99.90;;;;;;4147452;28;20038;-77
2023/10/01 10:35:15;;;;;;;14.07;7.07;;;22.80;99.90;;;;;;4150669;28;20049;-77
2023/10/01 10:37:36;;;;;;;13.20;6.43;;;22.80;99.90;;;;;;4125051;28;20083;-79
2023/10/01 10:39:47;;;;;;;17.05;7.40;;;22.90;99.90;;;;;;4139362;28;20018;-78
2023/10/01 10:42:27;;;;;;;15.40;7.30;;;22.90;99.90;;;;;;4145871;28;20030;-78
2023/10/01 10:44:28;;;;;;;15.68;7.43;;;22.90;99.90;;;;;;4156899;28;20046;-76
2023/10/01 10:46:29;;;;;;;14.45;7.18;;;23.00;99.90;;;;;;4155664;28;20026;-76
2023/10/01 10:48:59;;;;;;;13.90;6.63;;;23.00;99.90;;;;;;4151233;28;20541;-76
2023/10/01 10:51:02;;;;;;;14.82;7.38;;;23.00;99.90;;;;;;4149206;28;20030;-77
2023/10/01 10:53:14;;;;;;;11.90;6.75;;;23.10;99.90;;;;;;4149524;28;20088;-78
2023/10/01 10:55:18;;;;;;;17.38;7.32;;;23.10;99.90;;;;;;4136374;28;20033;-77
2023/10/01 10:57:27;;;;;;;13.18;6.63;;;23.10;99.90;;;;;;4152783;28;20105;-79
2023/10/01 10:59:33;;;;;;;14.63;7.00;;;23.20;99.90;;;;;;4144271;28;20025;-77
2023/10/01 11:01:47;;;;;;;13.15;6.93;;;23.20;99.90;;;;;;4150283;28;20069;-77
2023/10/01 11:03:49;;;;;;;11.88;6.57;;;23.20;99.90;;;;;;4132048;28;20030;-76
2023/10/01 11:05:50;;;;;;;;;;;23.30;99.90;;;;;;4137590;28;20030;-78
2023/10/01 11:08:02;;;;;;;13.80;6.82;;;23.30;99.90;;;;;;4152821;28;19916;-78
2023/10/01 11:10:04;;;;;;;14.80;6.07;;;23.30;99.90;;;;;;4132417;28;20521;-78
2023/10/01 11:12:22;;;;;;;11.43;6.38;;;23.40;99.90;;;;;;4151786;28;20057;-79
2023/10/01 11:14:25;;;;;;;14.32;6.90;;;23.50;99.90;;;;;;4151114;28;20364;-78
2023/10/01 11:16:33;;;;;;;14.70;7.03;;;23.50;99.90;;;;;;4132605;28;20474;-78